sensor_id;sensor_type;location;lat;lon;timestamp;temperature;humidity
25963;DHT22;13760;52.588;13.406;2022-10-03T00:03:36;10.60;99.90
25963;DHT22;13760;52.588;13.406;2022-10-03T00:06:21;10.70;99.90
25963;DHT22;13760;52.588;13.406;2022-10-03T00:18:28;10.70;99.90
25963;DHT22;13760;52.588;13.406;2022-10-03T00:20:45;10.80;99.90
25963;DHT22;13760;52.588;13.406;2022-10-03T00:23:33;10.80;99.90
25963;DHT22;13760;52.588;13.406;2022-10-03T00:37:45;10.80;99.90
25963;DHT22;13760;52.588;13.406;2022-10-03T00:54:53;10.70;99.90
25963;DHT22;13760;52.588;13.406;2022-10-03T01:00:12;10.70;99.90
25963;DHT22;13760;52.588;13.406;2022-10-03T01:11:05;10.70;99.90
25963;DHT22;13760;52.588;13.406;2022-10-03T01:13:50;10.70;99.90
25963;DHT22;13760;52.588;13.406;2022-10-03T01:28:22;10.80;99.90
25963;DHT22;13760;52.588;13.406;2022-10-03T01:31:15;10.80;99.90
25963;DHT22;13760;52.588;13.406;2022-10-03T01:33:50;10.90;99.90
25963;DHT22;13760;52.588;13.406;2022-10-03T01:36:33;11.00;99.90
25963;DHT22;13760;52.588;13.406;2022-10-03T01:42:09;11.00;99.90
25963;DHT22;13760;52.588;13.406;2022-10-03T01:45:00;11.00;99.90
25963;DHT22;13760;52.588;13.406;2022-10-03T01:47:38;11.10;99.90
25963;DHT22;13760;52.588;13.406;2022-10-03T01:52:55;11.10;99.90
25963;DHT22;13760;52.588;13.406;2022-10-03T01:58:21;11.10;99.90
25963;DHT22;13760;52.588;13.406;2022-10-03T02:01:08;11.10;99.90
25963;DHT22;13760;52.588;13.406;2022-10-03T02:03:37;11.10;99.90
25963;DHT22;13760;52.588;13.406;2022-10-03T02:06:39;11.10;99.90
25963;DHT22;13760;52.588;13.406;2022-10-03T02:09:27;11.10;99.90
25963;DHT22;13760;52.588;13.406;2022-10-03T02:12:14;11.20;99.90
25963;DHT22;13760;52.588;13.406;2022-10-03T02:17:42;11.20;99.90
25963;DHT22;13760;52.588;13.406;2022-10-03T02:22:56;11.20;99.90
25963;DHT22;13760;52.588;13.406;2022-10-03T02:36:38;11.30;99.90
25963;DHT22;13760;52.588;13.406;2022-10-03T02:39:30;11.30;99.90
25963;DHT22;13760;52.588;13.406;2022-10-03T02:50:51;11.30;99.90
25963;DHT22;13760;52.588;13.406;2022-10-03T02:56:38;11.30;99.90
25963;DHT22;13760;52.588;13.406;2022-10-03T03:02:13;11.30;99.90
25963;DHT22;13760;52.588;13.406;2022-10-03T03:05:03;11.30;99.90
25963;DHT22;13760;52.588;13.406;2022-10-03T03:13:10;11.40;99.90
25963;DHT22;13760;52.588;13.406;2022-10-03T03:19:04;11.30;99.90
25963;DHT22;13760;52.588;13.406;2022-10-03T03:21:49;11.40;99.90
25963;DHT22;13760;52.588;13.406;2022-10-03T03:27:25;11.40;99.90
25963;DHT22;13760;52.588;13.406;2022-10-03T03:30:06;11.40;99.90
25963;DHT22;13760;52.588;13.406;2022-10-03T03:38:25;11.40;99.90
25963;DHT22;13760;52.588;13.406;2022-10-03T03:41:08;11.40;99.90
25963;DHT22;13760;52.588;13.406;2022-10-03T03:43:58;11.40;99.90
25963;DHT22;13760;52.588;13.406;2022-10-03T03:46:44;11.40;99.90
25963;DHT22;13760;52.588;13.406;2022-10-03T03:49:37;11.40;99.90
25963;DHT22;13760;52.588;13.406;2022-10-03T03:55:06;11.30;99.90
25963;DHT22;13760;52.588;13.406;2022-10-03T04:00:40;11.40;99.90
25963;DHT22;13760;52.588;13.406;2022-10-03T04:03:19;11.40;99.90
25963;DHT22;13760;52.588;13.406;2022-10-03T04:06:04;11.30;99.90
25963;DHT22;13760;52.588;13.406;2022-10-03T04:14:46;11.30;99.90
25963;DHT22;13760;52.588;13.406;2022-10-03T04:20:24;11.30;99.90
25963;DHT22;13760;52.588;13.406;2022-10-03T04:36:51;11.30;99.90
25963;DHT22;13760;52.588;13.406;2022-10-03T04:39:31;11.30;99.90
25963;DHT22;13760;52.588;13.406;2022-10-03T04:42:15;11.30;99.90
25963;DHT22;13760;52.588;13.406;2022-10-03T04:47:47;11.30;99.90
25963;DHT22;13760;52.588;13.406;2022-10-03T04:50:29;11.40;99.90
25963;DHT22;13760;52.588;13.406;2022-10-03T04:53:10;11.40;99.90
25963;DHT22;13760;52.588;13.406;2022-10-03T04:55:49;11.30;99.90
25963;DHT22;13760;52.588;13.406;2022-10-03T04:58:42;11.40;99.90
25963;DHT22;13760;52.588;13.406;2022-10-03T05:01:22;11.40;99.90
25963;DHT22;13760;52.588;13.406;2022-10-03T05:09:29;11.30;99.90
25963;DHT22;13760;52.588;13.406;2022-10-03T05:14:56;11.40;99.90
25963;DHT22;13760;52.588;13.406;2022-10-03T05:17:27;11.40;99.90
25963;DHT22;13760;52.588;13.406;2022-10-03T05:22:54;11.40;99.90
25963;DHT22;13760;52.588;13.406;2022-10-03T05:25:44;11.40;99.90
25963;DHT22;13760;52.588;13.406;2022-10-03T05:28:38;11.40;99.90
25963;DHT22;13760;52.588;13.406;2022-10-03T05:31:22;11.40;99.90
25963;DHT22;13760;52.588;13.406;2022-10-03T05:34:01;11.40;99.90
25963;DHT22;13760;52.588;13.406;2022-10-03T05:42:34;11.40;99.90
25963;DHT22;13760;52.588;13.406;2022-10-03T05:45:27;11.40;99.90
25963;DHT22;13760;52.588;13.406;2022-10-03T06:07:47;11.40;99.90
25963;DHT22;13760;52.588;13.406;2022-10-03T06:10:48;11.40;99.90
25963;DHT22;13760;52.588;13.406;2022-10-03T06:23:38;11.60;99.90
25963;DHT22;13760;52.588;13.406;2022-10-03T06:31:57;11.70;99.90
25963;DHT22;13760;52.588;13.406;2022-10-03T06:35:12;11.70;99.90
25963;DHT22;13760;52.588;13.406;2022-10-03T06:43:48;11.80;99.90
25963;DHT22;13760;52.588;13.406;2022-10-03T06:49:44;11.80;99.90
25963;DHT22;13760;52.588;13.406;2022-10-03T07:01:03;11.90;99.90
25963;DHT22;13760;52.588;13.406;2022-10-03T07:06:47;12.10;99.90
25963;DHT22;13760;52.588;13.406;2022-10-03T07:17:24;12.20;99.90
25963;DHT22;13760;52.588;13.406;2022-10-03T07:28:52;12.30;99.90
25963;DHT22;13760;52.588;13.406;2022-10-03T07:55:22;12.40;99.90
25963;DHT22;13760;52.588;13.406;2022-10-03T08:00:39;12.50;99.90
25963;DHT22;13760;52.588;13.406;2022-10-03T08:15:29;12.60;99.90
25963;DHT22;13760;52.588;13.406;2022-10-03T08:18:18;12.70;99.90
25963;DHT22;13760;52.588;13.406;2022-10-03T08:20:56;12.70;99.90
25963;DHT22;13760;52.588;13.406;2022-10-03T08:23:56;12.80;99.90
25963;DHT22;13760;52.588;13.406;2022-10-03T08:29:33;12.90;99.90
25963;DHT22;13760;52.588;13.406;2022-10-03T08:37:33;13.00;99.90
25963;DHT22;13760;52.588;13.406;2022-10-03T08:56:11;13.10;99.90
25963;DHT22;13760;52.588;13.406;2022-10-03T09:10:29;13.80;99.90
25963;DHT22;13760;52.588;13.406;2022-10-03T09:27:35;13.70;99.90
25963;DHT22;13760;52.588;13.406;2022-10-03T09:30:07;13.90;99.90
25963;DHT22;13760;52.588;13.406;2022-10-03T09:33:02;13.90;99.90
25963;DHT22;13760;52.588;13.406;2022-10-03T09:38:34;14.10;99.90
25963;DHT22;13760;52.588;13.406;2022-10-03T09:47:13;14.40;99.90
25963;DHT22;13760;52.588;13.406;2022-10-03T11:39:12;15.50;99.90
25963;DHT22;13760;52.588;13.406;2022-10-03T11:41:53;15.30;99.90
25963;DHT22;13760;52.588;13.406;2022-10-03T11:44:30;15.20;99.90
25963;DHT22;13760;52.588;13.406;2022-10-03T11:58:49;15.20;99.90
25963;DHT22;13760;52.588;13.406;2022-10-03T12:03:58;15.20;99.90
25963;DHT22;13760;52.588;13.406;2022-10-03T12:09:46;15.40;99.90
25963;DHT22;13760;52.588;13.406;2022-10-03T12:15:33;15.60;99.90
25963;DHT22;13760;52.588;13.406;2022-10-03T12:18:30;15.90;99.90
25963;DHT22;13760;52.588;13.406;2022-10-03T12:21:55;16.10;99.90
25963;DHT22;13760;52.588;13.406;2022-10-03T12:29:19;16.60;99.90
25963;DHT22;13760;52.588;13.406;2022-10-03T12:40:30;16.70;99.90
25963;DHT22;13760;52.588;13.406;2022-10-03T12:43:05;16.50;99.90
25963;DHT22;13760;52.588;13.406;2022-10-03T12:46:22;16.50;99.90
25963;DHT22;13760;52.588;13.406;2022-10-03T12:51:53;16.20;99.90
25963;DHT22;13760;52.588;13.406;2022-10-03T12:54:50;16.10;99.90
25963;DHT22;13760;52.588;13.406;2022-10-03T13:20:37;16.70;99.90
25963;DHT22;13760;52.588;13.406;2022-10-03T13:29:45;16.70;99.90
25963;DHT22;13760;52.588;13.406;2022-10-03T13:38:42;16.80;99.90
25963;DHT22;13760;52.588;13.406;2022-10-03T13:44:10;16.90;99.90
25963;DHT22;13760;52.588;13.406;2022-10-03T13:46:41;16.80;99.90
25963;DHT22;13760;52.588;13.406;2022-10-03T13:49:25;16.70;99.90
25963;DHT22;13760;52.588;13.406;2022-10-03T13:52:27;16.70;99.90
25963;DHT22;13760;52.588;13.406;2022-10-03T13:57:53;16.60;99.90
25963;DHT22;13760;52.588;13.406;2022-10-03T14:00:23;16.60;99.90
25963;DHT22;13760;52.588;13.406;2022-10-03T14:03:06;16.70;99.90
25963;DHT22;13760;52.588;13.406;2022-10-03T14:08:50;16.70;99.90
25963;DHT22;13760;52.588;13.406;2022-10-03T14:17:09;16.70;99.90
25963;DHT22;13760;52.588;13.406;2022-10-03T14:22:55;16.70;99.90
25963;DHT22;13760;52.588;13.406;2022-10-03T14:25:27;16.50;99.90
25963;DHT22;13760;52.588;13.406;2022-10-03T14:28:14;16.40;99.90
25963;DHT22;13760;52.588;13.406;2022-10-03T14:31:15;16.30;99.90
25963;DHT22;13760;52.588;13.406;2022-10-03T14:34:05;16.20;99.90
25963;DHT22;13760;52.588;13.406;2022-10-03T14:36:46;16.00;99.90
25963;DHT22;13760;52.588;13.406;2022-10-03T14:45:10;15.90;99.90
25963;DHT22;13760;52.588;13.406;2022-10-03T14:47:40;15.90;99.90
25963;DHT22;13760;52.588;13.406;2022-10-03T14:50:18;15.90;99.90
25963;DHT22;13760;52.588;13.406;2022-10-03T14:55:30;15.90;99.90
25963;DHT22;13760;52.588;13.406;2022-10-03T14:58:16;15.80;99.90
25963;DHT22;13760;52.588;13.406;2022-10-03T15:01:03;15.80;99.90
25963;DHT22;13760;52.588;13.406;2022-10-03T15:03:37;15.80;99.90
25963;DHT22;13760;52.588;13.406;2022-10-03T15:08:53;15.80;99.90
25963;DHT22;13760;52.588;13.406;2022-10-03T15:11:27;15.80;99.90
25963;DHT22;13760;52.588;13.406;2022-10-03T15:14:14;15.80;99.90
25963;DHT22;13760;52.588;13.406;2022-10-03T15:16:50;15.70;99.90
25963;DHT22;13760;52.588;13.406;2022-10-03T15:19:27;15.70;99.90
25963;DHT22;13760;52.588;13.406;2022-10-03T15:22:10;15.60;99.90
25963;DHT22;13760;52.588;13.406;2022-10-03T15:24:42;15.70;99.90
25963;DHT22;13760;52.588;13.406;2022-10-03T15:27:18;15.60;99.90
25963;DHT22;13760;52.588;13.406;2022-10-03T15:29:50;15.60;99.90
25963;DHT22;13760;52.588;13.406;2022-10-03T15:32:37;15.60;99.90
25963;DHT22;13760;52.588;13.406;2022-10-03T15:35:04;15.50;99.90
25963;DHT22;13760;52.588;13.406;2022-10-03T15:37:41;15.50;99.90
25963;DHT22;13760;52.588;13.406;2022-10-03T15:40:23;15.40;99.90
25963;DHT22;13760;52.588;13.406;2022-10-03T15:45:37;15.40;99.90
25963;DHT22;13760;52.588;13.406;2022-10-03T15:48:10;15.30;99.90
25963;DHT22;13760;52.588;13.406;2022-10-03T15:50:39;15.30;99.90
25963;DHT22;13760;52.588;13.406;2022-10-03T15:53:25;15.30;99.90
25963;DHT22;13760;52.588;13.406;2022-10-03T15:56:13;15.20;99.90
25963;DHT22;13760;52.588;13.406;2022-10-03T15:58:48;15.20;99.90
25963;DHT22;13760;52.588;13.406;2022-10-03T16:04:00;15.10;99.90
25963;DHT22;13760;52.588;13.406;2022-10-03T16:06:38;15.10;99.90
25963;DHT22;13760;52.588;13.406;2022-10-03T16:15:21;15.00;99.90
25963;DHT22;13760;52.588;13.406;2022-10-03T16:18:08;15.00;99.90
25963;DHT22;13760;52.588;13.406;2022-10-03T16:20:44;15.00;99.90
25963;DHT22;13760;52.588;13.406;2022-10-03T16:23:18;15.00;99.90
25963;DHT22;13760;52.588;13.406;2022-10-03T16:25:55;14.90;99.90
25963;DHT22;13760;52.588;13.406;2022-10-03T16:28:39;14.90;99.90
25963;DHT22;13760;52.588;13.406;2022-10-03T16:31:25;14.90;99.90
25963;DHT22;13760;52.588;13.406;2022-10-03T16:34:02;14.90;99.90
25963;DHT22;13760;52.588;13.406;2022-10-03T16:36:45;14.80;99.90
25963;DHT22;13760;52.588;13.406;2022-10-03T16:39:23;14.80;99.90
25963;DHT22;13760;52.588;13.406;2022-10-03T16:41:54;14.80;99.90
25963;DHT22;13760;52.588;13.406;2022-10-03T16:44:36;14.80;99.90
25963;DHT22;13760;52.588;13.406;2022-10-03T16:47:05;14.80;99.90
25963;DHT22;13760;52.588;13.406;2022-10-03T16:49:55;14.70;99.90
25963;DHT22;13760;52.588;13.406;2022-10-03T16:52:47;14.70;99.90
25963;DHT22;13760;52.588;13.406;2022-10-03T16:55:30;14.70;99.90
25963;DHT22;13760;52.588;13.406;2022-10-03T17:00:49;14.60;99.90
25963;DHT22;13760;52.588;13.406;2022-10-03T17:03:23;14.60;99.90
25963;DHT22;13760;52.588;13.406;2022-10-03T17:05:53;14.50;99.90
25963;DHT22;13760;52.588;13.406;2022-10-03T17:08:26;14.50;99.90
25963;DHT22;13760;52.588;13.406;2022-10-03T17:10:59;14.40;99.90
25963;DHT22;13760;52.588;13.406;2022-10-03T17:13:44;14.40;99.90
25963;DHT22;13760;52.588;13.406;2022-10-03T17:16:12;14.40;99.90
25963;DHT22;13760;52.588;13.406;2022-10-03T17:18:43;14.40;99.90
25963;DHT22;13760;52.588;13.406;2022-10-03T17:21:27;14.30;99.90
25963;DHT22;13760;52.588;13.406;2022-10-03T17:24:05;14.30;99.90
25963;DHT22;13760;52.588;13.406;2022-10-03T17:26:41;14.20;99.90
25963;DHT22;13760;52.588;13.406;2022-10-03T17:29:29;14.20;99.90
25963;DHT22;13760;52.588;13.406;2022-10-03T17:32:00;14.10;99.90
25963;DHT22;13760;52.588;13.406;2022-10-03T17:34:33;14.00;99.90
25963;DHT22;13760;52.588;13.406;2022-10-03T17:42:24;14.00;99.90
25963;DHT22;13760;52.588;13.406;2022-10-03T17:45:12;13.90;99.90
25963;DHT22;13760;52.588;13.406;2022-10-03T17:53:01;13.80;99.90
25963;DHT22;13760;52.588;13.406;2022-10-03T17:55:39;13.80;99.90
25963;DHT22;13760;52.588;13.406;2022-10-03T17:58:11;13.80;99.90
25963;DHT22;13760;52.588;13.406;2022-10-03T18:03:12;13.80;99.90
25963;DHT22;13760;52.588;13.406;2022-10-03T18:05:53;13.80;99.90
25963;DHT22;13760;52.588;13.406;2022-10-03T18:08:29;13.80;99.90
25963;DHT22;13760;52.588;13.406;2022-10-03T18:10:59;13.80;99.90
25963;DHT22;13760;52.588;13.406;2022-10-03T18:13:37;13.80;99.90
25963;DHT22;13760;52.588;13.406;2022-10-03T18:27:59;13.80;99.90
25963;DHT22;13760;52.588;13.406;2022-10-03T18:30:33;13.80;99.90
25963;DHT22;13760;52.588;13.406;2022-10-03T18:33:03;13.70;99.90
25963;DHT22;13760;52.588;13.406;2022-10-03T18:35:34;13.70;99.90
25963;DHT22;13760;52.588;13.406;2022-10-03T18:40:52;13.70;99.90
25963;DHT22;13760;52.588;13.406;2022-10-03T18:43:37;13.60;99.90
25963;DHT22;13760;52.588;13.406;2022-10-03T18:46:19;13.50;99.90
25963;DHT22;13760;52.588;13.406;2022-10-03T18:48:55;13.50;99.90
25963;DHT22;13760;52.588;13.406;2022-10-03T18:51:36;13.50;99.90
25963;DHT22;13760;52.588;13.406;2022-10-03T18:56:45;13.40;99.90
25963;DHT22;13760;52.588;13.406;2022-10-03T19:02:25;13.40;99.90
25963;DHT22;13760;52.588;13.406;2022-10-03T19:05:18;13.50;99.90
25963;DHT22;13760;52.588;13.406;2022-10-03T19:08:01;13.40;99.90
25963;DHT22;13760;52.588;13.406;2022-10-03T19:16:10;13.40;99.90
25963;DHT22;13760;52.588;13.406;2022-10-03T19:19:05;13.40;99.90
25963;DHT22;13760;52.588;13.406;2022-10-03T19:21:37;13.40;99.90
25963;DHT22;13760;52.588;13.406;2022-10-03T19:24:19;13.40;99.90
25963;DHT22;13760;52.588;13.406;2022-10-03T19:26:59;13.30;99.90
25963;DHT22;13760;52.588;13.406;2022-10-03T19:29:30;13.30;99.90
25963;DHT22;13760;52.588;13.406;2022-10-03T19:32:01;13.30;99.90
25963;DHT22;13760;52.588;13.406;2022-10-03T19:34:37;13.20;99.90
25963;DHT22;13760;52.588;13.406;2022-10-03T19:37:28;13.30;99.90
25963;DHT22;13760;52.588;13.406;2022-10-03T19:39:57;13.30;99.90
25963;DHT22;13760;52.588;13.406;2022-10-03T19:42:39;13.30;99.90
25963;DHT22;13760;52.588;13.406;2022-10-03T19:45:11;13.30;99.90
25963;DHT22;13760;52.588;13.406;2022-10-03T19:47:41;13.30;99.90
25963;DHT22;13760;52.588;13.406;2022-10-03T19:50:26;13.20;99.90
25963;DHT22;13760;52.588;13.406;2022-10-03T19:52:52;13.20;99.90
25963;DHT22;13760;52.588;13.406;2022-10-03T19:55:32;13.30;99.90
25963;DHT22;13760;52.588;13.406;2022-10-03T19:58:13;13.30;99.90
25963;DHT22;13760;52.588;13.406;2022-10-03T20:00:56;13.30;99.90
25963;DHT22;13760;52.588;13.406;2022-10-03T20:03:44;13.30;99.90
25963;DHT22;13760;52.588;13.406;2022-10-03T20:06:28;13.30;99.90
25963;DHT22;13760;52.588;13.406;2022-10-03T20:09:00;13.20;99.90
25963;DHT22;13760;52.588;13.406;2022-10-03T20:14:18;13.20;99.90
25963;DHT22;13760;52.588;13.406;2022-10-03T20:17:14;13.20;99.90
25963;DHT22;13760;52.588;13.406;2022-10-03T20:19:52;13.20;99.90
25963;DHT22;13760;52.588;13.406;2022-10-03T20:22:39;13.10;99.90
25963;DHT22;13760;52.588;13.406;2022-10-03T20:25:22;13.10;99.90
25963;DHT22;13760;52.588;13.406;2022-10-03T20:27:51;13.10;99.90
25963;DHT22;13760;52.588;13.406;2022-10-03T20:30:36;13.10;99.90
25963;DHT22;13760;52.588;13.406;2022-10-03T20:33:05;13.10;99.90
25963;DHT22;13760;52.588;13.406;2022-10-03T20:36:10;13.10;99.90
25963;DHT22;13760;52.588;13.406;2022-10-03T20:44:29;13.10;99.90
25963;DHT22;13760;52.588;13.406;2022-10-03T20:47:04;13.10;99.90
25963;DHT22;13760;52.588;13.406;2022-10-03T20:49:47;13.10;99.90
25963;DHT22;13760;52.588;13.406;2022-10-03T20:52:20;13.10;99.90
25963;DHT22;13760;52.588;13.406;2022-10-03T20:55:01;13.10;99.90
25963;DHT22;13760;52.588;13.406;2022-10-03T20:58:13;13.10;99.90
25963;DHT22;13760;52.588;13.406;2022-10-03T21:00:47;13.20;99.90
25963;DHT22;13760;52.588;13.406;2022-10-03T21:03:14;13.10;99.90
25963;DHT22;13760;52.588;13.406;2022-10-03T21:05:54;13.20;99.90
25963;DHT22;13760;52.588;13.406;2022-10-03T21:08:24;13.10;99.90
25963;DHT22;13760;52.588;13.406;2022-10-03T21:10:57;13.20;99.90
25963;DHT22;13760;52.588;13.406;2022-10-03T21:13:31;13.20;99.90
25963;DHT22;13760;52.588;13.406;2022-10-03T21:16:00;13.20;99.90
25963;DHT22;13760;52.588;13.406;2022-10-03T21:18:35;13.20;99.90
25963;DHT22;13760;52.588;13.406;2022-10-03T21:23:55;13.20;99.90
25963;DHT22;13760;52.588;13.406;2022-10-03T21:26:28;13.20;99.90
25963;DHT22;13760;52.588;13.406;2022-10-03T21:29:20;13.20;99.90
25963;DHT22;13760;52.588;13.406;2022-10-03T21:34:52;13.20;99.90
25963;DHT22;13760;52.588;13.406;2022-10-03T21:40:03;13.20;99.90
25963;DHT22;13760;52.588;13.406;2022-10-03T21:45:35;13.20;99.90
25963;DHT22;13760;52.588;13.406;2022-10-03T21:48:35;13.20;99.90
25963;DHT22;13760;52.588;13.406;2022-10-03T21:51:14;13.20;99.90
25963;DHT22;13760;52.588;13.406;2022-10-03T22:02:12;13.20;99.90
25963;DHT22;13760;52.588;13.406;2022-10-03T22:04:48;13.30;99.90
25963;DHT22;13760;52.588;13.406;2022-10-03T22:07:17;13.20;99.90
25963;DHT22;13760;52.588;13.406;2022-10-03T22:09:54;13.30;99.90
25963;DHT22;13760;52.588;13.406;2022-10-03T22:12:20;13.20;99.90
25963;DHT22;13760;52.588;13.406;2022-10-03T22:14:57;13.30;99.90
25963;DHT22;13760;52.588;13.406;2022-10-03T22:17:36;13.20;99.90
25963;DHT22;13760;52.588;13.406;2022-10-03T22:20:13;13.30;99.90
25963;DHT22;13760;52.588;13.406;2022-10-03T22:23:05;13.30;99.90
25963;DHT22;13760;52.588;13.406;2022-10-03T22:25:45;13.30;99.90
25963;DHT22;13760;52.588;13.406;2022-10-03T22:34:11;13.20;99.90
25963;DHT22;13760;52.588;13.406;2022-10-03T22:36:41;13.20;99.90
25963;DHT22;13760;52.588;13.406;2022-10-03T22:39:17;13.30;99.90
25963;DHT22;13760;52.588;13.406;2022-10-03T22:41:52;13.20;99.90
25963;DHT22;13760;52.588;13.406;2022-10-03T22:44:24;13.20;99.90
25963;DHT22;13760;52.588;13.406;2022-10-03T22:46:54;13.20;99.90
25963;DHT22;13760;52.588;13.406;2022-10-03T22:49:29;13.20;99.90
25963;DHT22;13760;52.588;13.406;2022-10-03T22:51:59;13.20;99.90
25963;DHT22;13760;52.588;13.406;2022-10-03T22:54:33;13.20;99.90
25963;DHT22;13760;52.588;13.406;2022-10-03T22:57:05;13.20;99.90
25963;DHT22;13760;52.588;13.406;2022-10-03T22:59:34;13.20;99.90
25963;DHT22;13760;52.588;13.406;2022-10-03T23:02:07;13.20;99.90
25963;DHT22;13760;52.588;13.406;2022-10-03T23:04:49;13.20;99.90
25963;DHT22;13760;52.588;13.406;2022-10-03T23:07:39;13.20;99.90
25963;DHT22;13760;52.588;13.406;2022-10-03T23:10:14;13.20;99.90
25963;DHT22;13760;52.588;13.406;2022-10-03T23:12:46;13.20;99.90
25963;DHT22;13760;52.588;13.406;2022-10-03T23:15:17;13.20;99.90
25963;DHT22;13760;52.588;13.406;2022-10-03T23:18:02;13.20;99.90
25963;DHT22;13760;52.588;13.406;2022-10-03T23:21:03;13.20;99.90
25963;DHT22;13760;52.588;13.406;2022-10-03T23:23:51;13.20;99.90
25963;DHT22;13760;52.588;13.406;2022-10-03T23:29:13;13.20;99.90
25963;DHT22;13760;52.588;13.406;2022-10-03T23:31:49;13.20;99.90
25963;DHT22;13760;52.588;13.406;2022-10-03T23:42:24;13.10;99.90
25963;DHT22;13760;52.588;13.406;2022-10-03T23:44:56;13.20;99.90
25963;DHT22;13760;52.588;13.406;2022-10-03T23:50:43;13.10;99.90
25963;DHT22;13760;52.588;13.406;2022-10-03T23:53:21;13.20;99.90
25963;DHT22;13760;52.588;13.406;2022-10-03T23:55:49;13.10;99.90
25963;DHT22;13760;52.588;13.406;2022-10-03T23:58:23;13.10;99.90
